createdAt,value
2019-05-06T00:00:34.153Z,8.40
2019-05-06T00:04:54.197Z,8.40
2019-05-06T00:09:14.720Z,8.50
2019-05-06T00:13:34.386Z,8.40
2019-05-06T00:17:53.859Z,8.40
2019-05-06T00:22:14.216Z,8.40
2019-05-06T00:26:55.115Z,8.40
2019-05-06T00:31:16.587Z,8.30
2019-05-06T00:35:35.054Z,8.30
2019-05-06T00:40:08.133Z,8.20
2019-05-06T00:44:26.444Z,8.20
2019-05-06T00:48:45.059Z,8.20
2019-05-06T00:53:05.983Z,8.20
2019-05-06T00:57:43.824Z,8.20
2019-05-06T01:02:04.614Z,8.10
2019-05-06T01:06:24.541Z,8.10
2019-05-06T01:10:44.962Z,8.00
2019-05-06T01:15:04.969Z,7.90
2019-05-06T01:19:23.584Z,7.80
2019-05-06T01:23:46.031Z,7.80
2019-05-06T01:28:04.709Z,7.70
2019-05-06T01:32:23.684Z,7.70
2019-05-06T01:36:43.693Z,7.70
2019-05-06T01:41:24.437Z,7.60
2019-05-06T01:45:43.966Z,7.60
2019-05-06T01:50:04.466Z,7.60
2019-05-06T01:54:24.879Z,7.50
2019-05-06T01:58:44.023Z,7.50
2019-05-06T02:03:04.077Z,7.40
2019-05-06T02:07:24.126Z,7.40
2019-05-06T02:11:44.432Z,7.40
2019-05-06T02:16:03.978Z,7.40
2019-05-06T02:20:24.517Z,7.40
2019-05-06T02:24:46.776Z,7.50
2019-05-06T02:29:07.046Z,7.50
2019-05-06T02:33:35.599Z,7.50
2019-05-06T02:37:55.033Z,7.60
2019-05-06T02:42:13.405Z,7.70
2019-05-06T02:46:33.853Z,7.70
2019-05-06T02:51:05.730Z,7.80
2019-05-06T02:55:24.335Z,7.80
2019-05-06T02:59:44.267Z,7.80
2019-05-06T03:04:04.403Z,7.80
2019-05-06T03:08:23.871Z,7.90
2019-05-06T03:12:43.042Z,7.90
2019-05-06T03:17:03.527Z,7.90
2019-05-06T03:21:33.745Z,8.00
2019-05-06T03:25:53.215Z,8.00
2019-05-06T03:30:16.419Z,8.10
2019-05-06T03:34:52.917Z,8.10
2019-05-06T03:38:53.606Z,8.10
2019-05-06T03:43:13.076Z,8.10
2019-05-06T03:47:49.792Z,8.10
2019-05-06T03:52:08.076Z,8.10
2019-05-06T03:56:28.419Z,8.10
2019-05-06T04:00:48.599Z,8.00
2019-05-06T04:05:06.994Z,8.10
2019-05-06T04:09:26.876Z,8.10
2019-05-06T04:13:45.958Z,8.10
2019-05-06T04:18:08.356Z,8.10
2019-05-06T04:22:36.202Z,8.10
2019-05-06T04:27:06.903Z,8.20
2019-05-06T04:31:25.605Z,8.20
2019-05-06T04:35:44.457Z,8.30
2019-05-06T04:40:04.622Z,8.30
2019-05-06T04:44:24.117Z,8.20
2019-05-06T04:48:43.380Z,8.20
2019-05-06T04:53:05.960Z,8.20
2019-05-06T04:57:24.790Z,8.20
2019-05-06T05:01:45.477Z,8.20
2019-05-06T05:06:05.704Z,8.30
2019-05-06T05:10:28.480Z,8.30
2019-05-06T05:15:09.122Z,8.30
2019-05-06T05:19:29.399Z,8.40
2019-05-06T05:23:48.414Z,8.40
2019-05-06T05:28:06.822Z,8.50
2019-05-06T05:32:26.996Z,8.50
2019-05-06T05:36:45.721Z,8.60
2019-05-06T05:41:04.305Z,8.60
2019-05-06T05:45:22.645Z,8.70
2019-05-06T05:50:02.665Z,8.80
2019-05-06T05:54:23.146Z,8.80
2019-05-06T05:58:43.081Z,8.90
2019-05-06T06:03:02.924Z,9.00
2019-05-06T06:07:22.920Z,9.20
2019-05-06T06:11:53.369Z,9.30
2019-05-06T06:16:32.720Z,9.50
2019-05-06T06:21:18.776Z,9.70
2019-05-06T06:25:29.274Z,9.90
2019-05-06T06:29:48.077Z,10.10
2019-05-06T06:34:13.992Z,10.30
2019-05-06T06:38:50.049Z,10.40
2019-05-06T06:43:13.031Z,10.50
2019-05-06T06:47:32.967Z,10.70
2019-05-06T06:51:53.213Z,10.80
2019-05-06T06:56:28.642Z,10.90
2019-05-06T07:01:06.339Z,10.90
2019-05-06T07:05:33.185Z,10.90
2019-05-06T07:09:52.617Z,10.90
2019-05-06T07:14:13.582Z,10.90
2019-05-06T07:18:33.463Z,10.80
2019-05-06T07:22:53.014Z,10.80
2019-05-06T07:27:17.974Z,10.80
2019-05-06T07:31:36.389Z,11.00
2019-05-06T07:35:56.593Z,11.10
2019-05-06T07:40:17.272Z,11.30
2019-05-06T07:44:54.026Z,11.40
2019-05-06T07:49:12.963Z,11.50
2019-05-06T07:53:32.122Z,11.50
2019-05-06T07:57:52.549Z,11.60
2019-05-06T08:02:13.786Z,11.60
2019-05-06T08:06:32.615Z,11.60
2019-05-06T08:10:52.717Z,11.60
2019-05-06T08:15:12.670Z,11.50
2019-05-06T08:19:33.781Z,11.40
2019-05-06T08:23:53.964Z,11.30
2019-05-06T08:28:14.413Z,11.30
2019-05-06T08:32:33.068Z,11.30
2019-05-06T08:37:14.811Z,11.30
2019-05-06T08:41:34.639Z,11.50
2019-05-06T08:45:53.890Z,11.60
2019-05-06T08:50:25.991Z,11.80
2019-05-06T08:54:50.037Z,12.00
2019-05-06T08:59:08.923Z,12.20
2019-05-06T09:03:28.362Z,12.40
2019-05-06T09:07:48.213Z,12.50
2019-05-06T09:12:06.617Z,12.50
2019-05-06T09:16:25.281Z,12.40
2019-05-06T09:20:43.812Z,12.30
2019-05-06T09:25:02.921Z,12.30
2019-05-06T09:29:37.784Z,12.30
2019-05-06T09:34:02.819Z,12.20
2019-05-06T09:38:22.850Z,12.20
2019-05-06T09:42:42.576Z,12.10
2019-05-06T09:47:02.382Z,12.10
2019-05-06T09:51:22.237Z,12.20
2019-05-06T09:56:03.126Z,12.30
2019-05-06T10:00:23.544Z,12.50
2019-05-06T10:04:42.849Z,12.80
2019-05-06T10:09:04.794Z,13.10
2019-05-06T10:13:24.501Z,13.60
2019-05-06T10:17:43.699Z,14.00
2019-05-06T10:22:07.209Z,14.40
2019-05-06T10:26:26.292Z,14.90
2019-05-06T10:30:44.863Z,15.50
2019-05-06T10:35:03.554Z,16.30
2019-05-06T10:39:27.631Z,17.20
2019-05-06T10:44:08.315Z,18.20
2019-05-06T10:48:29.651Z,18.90
2019-05-06T10:53:05.703Z,19.60
2019-05-06T10:57:32.788Z,20.10
2019-05-06T11:01:53.000Z,20.80
2019-05-06T11:06:13.156Z,21.50
2019-05-06T11:10:39.996Z,22.20
2019-05-06T11:14:55.730Z,22.70
2019-05-06T11:19:15.867Z,23.30
2019-05-06T11:23:35.431Z,23.60
2019-05-06T11:27:55.352Z,23.80
2019-05-06T11:32:44.223Z,23.90
2019-05-06T11:37:24.207Z,23.90
2019-05-06T11:41:59.206Z,23.60
2019-05-06T11:46:03.555Z,22.90
2019-05-06T11:50:22.288Z,22.00
2019-05-06T11:54:42.323Z,21.00
2019-05-06T11:59:02.497Z,20.00
2019-05-06T12:03:23.311Z,19.00
2019-05-06T12:07:44.909Z,18.00
2019-05-06T12:12:03.284Z,17.00
2019-05-06T12:16:26.186Z,16.20
2019-05-06T12:20:42.638Z,15.50
2019-05-06T12:25:04.473Z,15.00
2019-05-06T12:29:21.831Z,14.60
2019-05-06T12:33:44.766Z,14.30
2019-05-06T12:38:05.402Z,14.10
2019-05-06T12:42:50.270Z,14.00
2019-05-06T12:47:23.510Z,14.00
2019-05-06T12:51:44.964Z,14.00
2019-05-06T12:56:04.154Z,14.20
2019-05-06T13:00:24.413Z,14.30
2019-05-06T13:04:54.577Z,14.60
2019-05-06T13:09:05.338Z,14.90
2019-05-06T13:13:24.694Z,15.30
2019-05-06T13:17:43.028Z,15.90
2019-05-06T13:22:03.668Z,16.60
2019-05-06T13:26:22.269Z,17.30
2019-05-06T13:30:43.191Z,17.80
2019-05-06T13:35:02.954Z,18.10
2019-05-06T13:39:23.759Z,18.20
2019-05-06T13:43:47.895Z,18.20
2019-05-06T13:48:13.297Z,18.00
2019-05-06T13:52:38.226Z,17.70
2019-05-06T13:56:57.421Z,17.40
2019-05-06T14:01:19.429Z,17.20
2019-05-06T14:05:37.848Z,17.00
2019-05-06T14:09:56.414Z,16.70
2019-05-06T14:14:16.165Z,16.50
2019-05-06T14:18:37.763Z,16.30
2019-05-06T14:22:58.411Z,16.10
2019-05-06T14:27:19.073Z,15.80
2019-05-06T14:31:44.486Z,15.80
2019-05-06T14:36:03.509Z,15.60
2019-05-06T14:40:24.737Z,15.50
2019-05-06T14:44:43.443Z,15.40
2019-05-06T14:49:04.267Z,15.30
2019-05-06T14:53:23.906Z,15.30
2019-05-06T14:57:42.824Z,15.20
2019-05-06T15:02:02.666Z,15.20
2019-05-06T15:06:22.297Z,15.20
2019-05-06T15:10:42.827Z,15.20
2019-05-06T15:15:03.642Z,15.10
2019-05-06T15:19:22.817Z,15.10
2019-05-06T15:23:42.382Z,15.10
2019-05-06T15:28:02.511Z,15.10
2019-05-06T15:32:32.541Z,15.10
2019-05-06T15:37:02.950Z,15.10
2019-05-06T15:41:24.156Z,15.10
2019-05-06T15:45:42.987Z,15.10
2019-05-06T15:50:01.635Z,15.10
2019-05-06T15:54:19.991Z,15.00
2019-05-06T15:58:38.318Z,14.90
2019-05-06T16:02:57.233Z,14.90
2019-05-06T16:07:15.905Z,14.80
2019-05-06T16:11:35.189Z,14.70
2019-05-06T16:15:53.578Z,14.60
2019-05-06T16:20:12.930Z,14.50
2019-05-06T16:24:37.929Z,14.50
2019-05-06T16:28:56.447Z,14.50
2019-05-06T16:33:15.998Z,14.50
2019-05-06T16:37:34.716Z,14.50
2019-05-06T16:41:53.094Z,14.50
2019-05-06T16:46:12.654Z,14.40
2019-05-06T16:50:33.048Z,14.40
2019-05-06T16:54:52.438Z,14.40
2019-05-06T16:59:11.147Z,14.30
2019-05-06T17:03:39.410Z,14.30
2019-05-06T17:07:59.338Z,14.30
2019-05-06T17:12:18.306Z,14.30
2019-05-06T17:16:37.053Z,14.30
2019-05-06T17:20:55.633Z,14.20
2019-05-06T17:25:15.542Z,14.10
2019-05-06T17:29:54.068Z,14.10
2019-05-06T17:34:15.375Z,14.00
2019-05-06T17:38:42.110Z,13.90
2019-05-06T17:43:02.558Z,13.90
2019-05-06T17:47:53.025Z,13.90
2019-05-06T17:52:15.925Z,13.80
2019-05-06T17:56:35.062Z,13.80
2019-05-06T18:00:53.980Z,13.70
2019-05-06T18:05:13.276Z,13.60
2019-05-06T18:09:33.427Z,13.60
2019-05-06T18:13:52.244Z,13.60
2019-05-06T18:18:12.894Z,13.50
2019-05-06T18:22:32.411Z,13.50
2019-05-06T18:26:52.880Z,13.40
2019-05-06T18:31:12.478Z,13.40
2019-05-06T18:35:38.670Z,13.40
2019-05-06T18:39:57.256Z,13.30
2019-05-06T18:44:16.078Z,13.30
2019-05-06T18:48:35.428Z,13.20
2019-05-06T18:52:54.314Z,13.20
2019-05-06T18:57:13.067Z,13.10
2019-05-06T19:01:33.164Z,13.10
2019-05-06T19:05:54.450Z,13.10
2019-05-06T19:10:19.358Z,13.10
2019-05-06T19:14:38.077Z,13.00
2019-05-06T19:18:56.964Z,13.00
2019-05-06T19:23:16.723Z,13.00
2019-05-06T19:27:38.098Z,13.00
2019-05-06T19:31:56.700Z,12.90
2019-05-06T19:36:17.410Z,12.90
2019-05-06T19:40:35.436Z,12.80
2019-05-06T19:44:55.186Z,12.80
2019-05-06T19:49:13.957Z,12.70
2019-05-06T19:53:32.452Z,12.70
2019-05-06T19:57:52.612Z,12.70
2019-05-06T20:02:12.869Z,12.70
2019-05-06T20:06:55.113Z,12.70
2019-05-06T20:11:34.982Z,12.70
2019-05-06T20:15:53.724Z,12.60
2019-05-06T20:20:12.422Z,12.60
2019-05-06T20:24:33.059Z,12.60
2019-05-06T20:28:52.611Z,12.50
2019-05-06T20:33:12.532Z,12.50
2019-05-06T20:37:32.981Z,12.40
2019-05-06T20:41:51.866Z,12.40
2019-05-06T20:46:12.428Z,12.30
2019-05-06T20:50:37.848Z,12.30
2019-05-06T20:54:57.449Z,12.30
2019-05-06T20:59:20.352Z,12.30
2019-05-06T21:03:42.350Z,12.20
2019-05-06T21:08:02.172Z,12.20
2019-05-06T21:12:21.956Z,12.20
2019-05-06T21:16:43.649Z,12.20
2019-05-06T21:21:04.471Z,12.20
2019-05-06T21:25:24.118Z,12.20
2019-05-06T21:29:43.641Z,12.20
2019-05-06T21:34:04.596Z,12.20
2019-05-06T21:38:22.874Z,12.20
2019-05-06T21:42:43.137Z,12.20
2019-05-06T21:47:02.980Z,12.10
2019-05-06T21:51:22.302Z,12.10
2019-05-06T21:55:41.926Z,12.00
2019-05-06T22:00:02.628Z,12.00
2019-05-06T22:04:26.477Z,11.90
2019-05-06T22:08:46.150Z,11.90
2019-05-06T22:13:04.740Z,11.80
2019-05-06T22:17:23.085Z,11.80
2019-05-06T22:21:59.125Z,11.80
2019-05-06T22:26:17.855Z,11.80
2019-05-06T22:30:38.597Z,11.70
2019-05-06T22:34:56.908Z,11.70
2019-05-06T22:39:15.212Z,11.70
2019-05-06T22:43:38.219Z,11.70
2019-05-06T22:47:59.371Z,11.60
2019-05-06T22:52:18.709Z,11.60
2019-05-06T22:56:38.872Z,11.60
2019-05-06T23:00:58.070Z,11.50
2019-05-06T23:05:17.443Z,11.50
2019-05-06T23:09:35.963Z,11.50
2019-05-06T23:13:54.765Z,11.50
2019-05-06T23:18:14.526Z,11.50
2019-05-06T23:22:33.180Z,11.40
2019-05-06T23:26:54.311Z,11.30
2019-05-06T23:31:12.381Z,11.30
2019-05-06T23:35:32.810Z,11.20
2019-05-06T23:40:44.754Z,11.20
2019-05-06T23:45:56.974Z,11.10
2019-05-06T23:51:09.442Z,11.00
2019-05-06T23:56:21.086Z,10.80
